West Paducah, KY

2:13 PM CDT on July 26, 2016 (GMT -0500)
Heath | | Change Station
Active Advisory: Special Statement

Elev 395 ft 37.07 °N, 88.81 °W | Updated 27 seconds ago

Partly Cloudy
Partly Cloudy
91.4 °F
Feels Like 105 °F
N
0.0
Wind Variable Wind from North
Gusts 0.0 mph

Today
High -- | Low -- °F
--% Chance of Precip.
Yesterday
High -- | Low -- °F
Precip. -- in
Pressure 29.95 in
Visibility 10.0 miles
Clouds Few 3200 ft
Heat Index 105 °F
Dew Point 77 °F
Humidity 63%
Rainfall 0.00 in
Snow Depth Not available.
5:55 AM 8:07 PM
Waning Gibbous, 52% visible
METAR KPAH 261853Z 16004KT 10SM FEW032 33/24 A2997 RMK AO2 SLP141 T03330239
Pressure 29.95 in
Visibility 10.0 miles
Clouds Few 3200 ft
Heat Index 105 °F
Dew Point 77 °F
Humidity 63%
Rainfall 0.00 in
Snow Depth Not available.
5:55 AM 8:07 PM
Waning Gibbous, 52% visible
METAR KPAH 261853Z 16004KT 10SM FEW032 33/24 A2997 RMK AO2 SLP141 T03330239

10-Day Weather Forecast

Almanac

Astronomy

Jul. 26, 2016 Rise Set
Actual Time
Civil Twilight
Nautical Twilight
Astronomical Twilight
Moon
Length of Visible Light
Length of Day
Tomorrow will be .
, % of the Moon is Illuminated

Today's Extremes

State Highs State Lows

Community

WunderPhotos

Upload Photos

1,927,663 photos uploaded!

WunderBlog® & News

Nearby

Air Quality

  Air Quality AQ Index Pollutant
Not available.

Snow Depth

Station Depth Elevation

Earthquake Activity

City Distance Mag. Time & Date
Minimum magnitude displayed is 2.5.

Coastal Water Temperatures

Place Temperature

Stations

Nearby Weather Stations

Station Location Temp. Windchill Dew Point Humidity Wind Precip. Elev Updated Type
                   

Watches & Warnings

Special Statement
Issued: 10:47 AM CDT Jul. 26, 2016 – National Weather Service

... Heat and humidity will produce heat indices above 100 today...

High temperatures in the lower 90s combined with dewpoints in the
middle 70s will produce heat indices of 100 to 105 this afternoon.
Isolated showers and thunderstorms may provide temporary relief
for some communities this afternoon.


1047 am CDT Tue Jul 26 2016

... Heat and humidity will produce heat indices above 100 today...

High temperatures in the lower 90s combined with dewpoints in the
middle 70s will produce heat indices of 100 to 105 this afternoon.
Isolated showers and thunderstorms may provide temporary relief
for some communities this afternoon.